createdAt,value
2018-03-24T00:00:50.189Z,58.93
2018-03-24T00:03:24.799Z,71.97
2018-03-24T00:05:58.682Z,61.23
2018-03-24T00:08:32.661Z,62.47
2018-03-24T00:11:06.441Z,58.63
2018-03-24T00:13:40.988Z,67.03
2018-03-24T00:16:15.696Z,64.97
2018-03-24T00:18:49.609Z,65.17
2018-03-24T00:21:23.312Z,58.97
2018-03-24T00:23:57.312Z,65.93
2018-03-24T00:26:31.729Z,63.20
2018-03-24T00:29:08.900Z,63.60
2018-03-24T00:31:42.714Z,66.37
2018-03-24T00:34:16.763Z,60.93
2018-03-24T00:36:51.173Z,61.40
2018-03-24T00:39:25.809Z,62.63
2018-03-24T00:42:01.005Z,57.30
2018-03-24T00:44:35.197Z,55.43
2018-03-24T00:47:09.323Z,46.63
2018-03-24T00:49:43.380Z,45.67
2018-03-24T00:52:17.467Z,47.83
2018-03-24T00:54:51.258Z,48.27
2018-03-24T00:57:26.087Z,50.27
2018-03-24T00:59:59.991Z,50.17
2018-03-24T01:02:34.908Z,44.53
2018-03-24T01:05:08.806Z,46.77
2018-03-24T01:07:42.638Z,45.97
2018-03-24T01:10:17.145Z,44.27
2018-03-24T01:12:51.988Z,47.00
2018-03-24T01:15:26.533Z,46.27
2018-03-24T01:18:00.510Z,49.83
2018-03-24T01:20:35.702Z,40.57
2018-03-24T01:23:09.870Z,46.10
2018-03-24T01:25:43.807Z,45.73
2018-03-24T01:28:18.000Z,48.13
2018-03-24T01:30:52.579Z,49.60
2018-03-24T01:33:26.828Z,53.77
2018-03-24T01:36:00.620Z,59.33
2018-03-24T01:38:34.414Z,57.70
2018-03-24T01:41:08.122Z,58.93
2018-03-24T01:43:42.765Z,53.40
2018-03-24T01:46:16.686Z,53.37
2018-03-24T01:48:51.177Z,54.17
2018-03-24T01:51:26.419Z,50.33
2018-03-24T01:54:01.153Z,54.10
2018-03-24T01:56:35.830Z,57.47
2018-03-24T01:59:11.308Z,60.47
2018-03-24T02:01:45.728Z,68.77
2018-03-24T02:04:19.332Z,61.63
2018-03-24T02:06:55.929Z,74.10
2018-03-24T02:09:30.644Z,80.93
2018-03-24T02:12:05.659Z,80.77
2018-03-24T02:14:40.184Z,69.60
2018-03-24T02:17:15.289Z,58.70
2018-03-24T02:19:49.704Z,64.60
2018-03-24T02:22:23.444Z,56.43
2018-03-24T02:24:59.204Z,54.67
2018-03-24T02:27:33.194Z,53.77
2018-03-24T02:30:07.278Z,55.00
2018-03-24T02:32:41.293Z,60.00
2018-03-24T02:35:15.910Z,65.60
2018-03-24T02:37:50.777Z,58.60
2018-03-24T02:40:24.791Z,48.90
2018-03-24T02:42:59.004Z,58.93
2018-03-24T02:45:32.999Z,57.77
2018-03-24T02:48:06.977Z,57.80
2018-03-24T02:50:41.659Z,58.30
2018-03-24T02:53:17.006Z,60.97
2018-03-24T02:55:50.785Z,67.43
2018-03-24T02:58:26.250Z,56.17
2018-03-24T03:01:00.442Z,58.93
2018-03-24T03:03:35.677Z,65.97
2018-03-24T03:06:09.574Z,71.77
2018-03-24T03:08:43.368Z,71.30
2018-03-24T03:11:18.453Z,75.43
2018-03-24T03:13:52.839Z,71.47
2018-03-24T03:16:27.921Z,67.63
2018-03-24T03:19:02.511Z,64.90
2018-03-24T03:21:52.589Z,58.63
2018-03-24T03:24:27.097Z,63.43
2018-03-24T03:27:01.631Z,63.23
2018-03-24T03:29:36.206Z,69.33
2018-03-24T03:32:19.891Z,59.33
2018-03-24T03:34:54.791Z,62.73
2018-03-24T03:37:29.387Z,67.60
2018-03-24T03:40:03.348Z,77.10
2018-03-24T03:42:38.026Z,64.57
2018-03-24T03:45:12.740Z,65.27
2018-03-24T03:47:49.337Z,72.07
2018-03-24T03:50:23.129Z,109.33
2018-03-24T03:52:56.997Z,156.23
2018-03-24T03:55:30.652Z,184.77
2018-03-24T03:58:04.802Z,213.30
2018-03-24T04:00:40.180Z,175.83
2018-03-24T04:03:14.992Z,172.33
2018-03-24T04:05:49.129Z,156.40
2018-03-24T04:08:22.980Z,149.43
2018-03-24T04:10:57.899Z,140.80
2018-03-24T04:13:31.722Z,140.60
2018-03-24T04:16:06.261Z,132.00
2018-03-24T04:18:40.663Z,127.90
2018-03-24T04:21:14.536Z,116.43
2018-03-24T04:23:49.098Z,110.20
2018-03-24T04:26:22.706Z,103.47
2018-03-24T04:28:58.228Z,86.83
2018-03-24T04:31:32.713Z,95.73
2018-03-24T04:34:07.472Z,95.27
2018-03-24T04:36:41.294Z,101.80
2018-03-24T04:39:15.077Z,95.17
2018-03-24T04:41:49.916Z,104.67
2018-03-24T04:44:25.022Z,85.27
2018-03-24T04:46:59.776Z,94.40
2018-03-24T04:49:34.192Z,81.70
2018-03-24T04:52:08.824Z,93.77
2018-03-24T04:54:43.652Z,93.13
2018-03-24T04:57:18.385Z,88.97
2018-03-24T04:59:53.430Z,79.67
2018-03-24T05:02:27.929Z,87.83
2018-03-24T05:05:02.676Z,68.63
2018-03-24T05:20:35.004Z,66.77
2018-03-24T05:23:09.540Z,93.93
2018-03-24T05:25:44.365Z,98.07
2018-03-24T05:28:18.982Z,105.43
2018-03-24T05:30:53.641Z,118.87
2018-03-24T05:33:28.332Z,110.17
2018-03-24T05:36:03.078Z,110.60
2018-03-24T05:38:37.268Z,97.83
2018-03-24T05:41:12.517Z,98.17
2018-03-24T05:43:46.850Z,92.93
2018-03-24T05:46:21.667Z,88.43
2018-03-24T05:48:56.133Z,85.60
2018-03-24T05:51:30.807Z,94.63
2018-03-24T05:54:04.717Z,81.80
2018-03-24T05:56:38.512Z,85.50
2018-03-24T05:59:13.125Z,80.50
2018-03-24T06:01:47.519Z,84.60
2018-03-24T06:04:21.349Z,79.57
2018-03-24T06:06:56.298Z,79.80
2018-03-24T06:09:31.167Z,82.03
2018-03-24T06:12:05.194Z,88.10
2018-03-24T06:14:40.125Z,82.13
2018-03-24T06:17:13.829Z,83.13
2018-03-24T06:19:48.405Z,81.50
2018-03-24T06:22:22.453Z,78.20
2018-03-24T06:24:56.607Z,73.30
2018-03-24T06:27:30.769Z,75.53
2018-03-24T06:30:04.901Z,77.43
2018-03-24T06:32:38.829Z,73.73
2018-03-24T06:35:13.877Z,72.03
2018-03-24T06:37:47.876Z,69.73
2018-03-24T06:40:22.423Z,65.00
2018-03-24T06:42:56.456Z,71.83
2018-03-24T06:45:30.105Z,66.93
2018-03-24T06:48:05.032Z,72.63
2018-03-24T06:50:38.720Z,66.97
2018-03-24T06:53:13.158Z,61.53
2018-03-24T06:55:47.512Z,71.00
2018-03-24T06:58:21.733Z,57.63
2018-03-24T07:00:56.632Z,65.50
2018-03-24T07:03:30.883Z,65.47
2018-03-24T07:06:05.771Z,63.77
2018-03-24T07:08:41.621Z,57.37
2018-03-24T07:11:15.552Z,59.07
2018-03-24T07:13:50.749Z,60.30
2018-03-24T07:16:25.195Z,60.67
2018-03-24T07:18:59.675Z,55.87
2018-03-24T07:21:34.493Z,53.97
2018-03-24T07:24:08.988Z,55.30
2018-03-24T07:26:43.678Z,57.03
2018-03-24T07:29:18.232Z,52.90
2018-03-24T07:31:53.157Z,52.43
2018-03-24T07:34:27.027Z,51.63
2018-03-24T07:37:01.990Z,48.77
2018-03-24T07:39:35.792Z,53.80
2018-03-24T07:42:09.625Z,50.93
2018-03-24T07:44:43.342Z,53.33
2018-03-24T07:47:17.384Z,53.17
2018-03-24T07:49:52.235Z,50.93
2018-03-24T07:52:26.885Z,50.77
2018-03-24T07:55:00.532Z,45.57
2018-03-24T07:57:35.329Z,40.77
2018-03-24T08:00:10.198Z,41.33
2018-03-24T08:02:43.930Z,41.77
2018-03-24T08:05:17.577Z,39.20
2018-03-24T08:07:52.168Z,43.03
2018-03-24T08:10:26.077Z,37.90
2018-03-24T08:12:59.871Z,37.13
2018-03-24T08:15:34.383Z,35.30
2018-03-24T08:18:08.235Z,33.50
2018-03-24T08:20:41.904Z,31.90
2018-03-24T08:23:15.614Z,31.10
2018-03-24T08:25:49.319Z,31.43
2018-03-24T08:28:24.520Z,31.17
2018-03-24T08:30:59.006Z,33.97
2018-03-24T08:33:33.820Z,32.23
2018-03-24T08:36:09.533Z,30.73
2018-03-24T08:38:43.447Z,28.83
2018-03-24T08:41:17.092Z,29.97
2018-03-24T08:43:51.464Z,29.47
2018-03-24T08:46:26.141Z,27.17
2018-03-24T08:48:59.836Z,28.07
2018-03-24T08:51:33.772Z,25.70
2018-03-24T08:54:07.795Z,24.80
2018-03-24T08:56:42.356Z,22.83
2018-03-24T08:59:16.262Z,23.27
2018-03-24T09:01:50.037Z,20.93
2018-03-24T09:04:23.725Z,19.80
2018-03-24T09:06:57.616Z,20.27
2018-03-24T09:09:31.382Z,22.57
2018-03-24T09:12:06.645Z,23.10
2018-03-24T09:14:40.293Z,21.03
2018-03-24T09:17:14.713Z,21.43
2018-03-24T09:19:48.511Z,19.37
2018-03-24T09:22:22.889Z,20.30
2018-03-24T09:24:57.053Z,17.50
2018-03-24T09:27:30.826Z,17.23
2018-03-24T09:30:05.374Z,18.67
2018-03-24T09:32:39.974Z,20.27
2018-03-24T09:35:13.668Z,18.77
2018-03-24T09:37:47.360Z,19.87
2018-03-24T09:40:21.068Z,17.73
2018-03-24T09:42:55.730Z,16.13
2018-03-24T09:45:30.263Z,16.73
2018-03-24T09:48:04.775Z,19.60
2018-03-24T09:50:38.488Z,13.40
2018-03-24T09:53:12.160Z,10.93
2018-03-24T09:55:46.508Z,9.83
2018-03-24T09:58:20.140Z,11.50
2018-03-24T10:00:54.678Z,12.00
2018-03-24T10:03:28.637Z,11.93
2018-03-24T10:06:03.179Z,11.27
2018-03-24T10:08:37.705Z,9.97
2018-03-24T10:11:12.097Z,9.43
2018-03-24T10:13:45.927Z,9.87
2018-03-24T10:16:19.760Z,11.53
2018-03-24T10:18:54.435Z,13.13
2018-03-24T10:34:54.545Z,12.13
2018-03-24T10:37:28.768Z,11.13
2018-03-24T10:40:03.361Z,12.73
2018-03-24T10:42:37.773Z,11.47
2018-03-24T10:45:12.868Z,11.93
2018-03-24T10:47:46.961Z,11.87
2018-03-24T10:50:20.930Z,13.80
2018-03-24T10:52:55.326Z,12.83
2018-03-24T10:55:29.347Z,13.77
2018-03-24T10:58:05.365Z,13.43
2018-03-24T11:00:39.412Z,14.30
2018-03-24T11:03:13.547Z,13.33
2018-03-24T11:05:48.366Z,12.40
2018-03-24T11:08:22.905Z,13.67
2018-03-24T11:10:57.649Z,12.30
2018-03-24T11:13:31.432Z,14.03
2018-03-24T11:16:06.304Z,13.63
2018-03-24T11:18:40.309Z,13.87
2018-03-24T11:21:14.726Z,13.97
2018-03-24T11:23:49.301Z,13.57
2018-03-24T11:26:23.040Z,11.27
2018-03-24T11:28:57.540Z,12.80
2018-03-24T11:31:33.168Z,12.53
2018-03-24T11:34:07.384Z,13.27
2018-03-24T11:36:41.076Z,14.10
2018-03-24T11:39:16.250Z,12.20
2018-03-24T11:41:50.436Z,12.93
2018-03-24T11:44:24.737Z,13.57
2018-03-24T11:46:58.545Z,12.03
2018-03-24T11:49:32.309Z,12.97
2018-03-24T11:52:05.802Z,11.57
2018-03-24T11:54:43.550Z,12.40
2018-03-24T11:57:18.034Z,11.87
2018-03-24T11:59:53.785Z,13.33
2018-03-24T12:02:27.557Z,11.67
2018-03-24T12:05:01.377Z,13.00
2018-03-24T12:07:36.694Z,15.00
2018-03-24T12:10:10.988Z,15.83
2018-03-24T12:12:45.620Z,12.37
2018-03-24T12:15:20.381Z,13.27
2018-03-24T12:17:55.124Z,12.57
2018-03-24T12:20:28.964Z,13.80
2018-03-24T12:23:02.672Z,14.43
2018-03-24T12:25:37.327Z,14.10
2018-03-24T12:28:11.274Z,14.80
2018-03-24T12:30:45.941Z,13.20
2018-03-24T12:33:20.548Z,13.53
2018-03-24T12:35:55.442Z,13.73
2018-03-24T12:38:29.936Z,14.80
2018-03-24T12:41:04.431Z,14.57
2018-03-24T12:43:39.118Z,13.20
2018-03-24T12:46:13.704Z,13.90
2018-03-24T12:48:47.468Z,15.33
2018-03-24T12:51:22.420Z,13.20
2018-03-24T12:53:57.307Z,14.00
2018-03-24T12:56:31.820Z,12.10
2018-03-24T12:59:06.693Z,14.93
2018-03-24T13:01:40.505Z,15.23
2018-03-24T13:04:14.416Z,14.60
2018-03-24T13:06:48.256Z,15.33
2018-03-24T13:09:23.655Z,14.03
2018-03-24T13:11:58.625Z,14.00
2018-03-24T13:14:32.256Z,15.10
2018-03-24T13:17:06.899Z,18.97
2018-03-24T13:19:40.889Z,16.23
2018-03-24T13:22:15.105Z,17.43
2018-03-24T13:24:48.831Z,16.43
2018-03-24T13:27:23.758Z,17.73
2018-03-24T13:29:58.326Z,14.87
2018-03-24T13:32:33.723Z,15.23
2018-03-24T13:35:07.508Z,18.60
2018-03-24T13:37:41.226Z,15.30
2018-03-24T13:40:15.077Z,17.17
2018-03-24T13:42:49.461Z,18.70
2018-03-24T13:45:24.130Z,14.57
2018-03-24T13:47:59.596Z,15.70
2018-03-24T13:50:33.449Z,16.90
2018-03-24T13:53:08.049Z,16.00
2018-03-24T13:55:42.630Z,16.37
2018-03-24T13:58:17.145Z,15.23
2018-03-24T14:00:51.675Z,15.57
2018-03-24T14:03:26.589Z,15.77
2018-03-24T14:06:01.436Z,16.20
2018-03-24T14:08:36.586Z,17.63
2018-03-24T14:11:11.553Z,16.30
2018-03-24T14:13:46.344Z,17.20
2018-03-24T14:16:19.947Z,15.00
2018-03-24T14:18:54.343Z,16.80
2018-03-24T14:21:28.991Z,18.57
2018-03-24T14:24:03.797Z,17.83
2018-03-24T14:26:37.943Z,17.30
2018-03-24T14:29:12.854Z,17.30
2018-03-24T14:31:46.574Z,17.23
2018-03-24T14:34:21.206Z,14.53
2018-03-24T14:36:56.111Z,14.60
2018-03-24T14:39:31.044Z,14.73
2018-03-24T14:42:05.038Z,15.10
2018-03-24T14:44:38.854Z,15.77
2018-03-24T14:47:13.412Z,15.73
2018-03-24T14:49:48.614Z,15.37
2018-03-24T14:52:24.072Z,15.80
2018-03-24T14:54:57.854Z,15.70
2018-03-24T14:57:32.484Z,16.10
2018-03-24T15:00:06.700Z,15.50
2018-03-24T15:02:40.706Z,15.23
2018-03-24T15:05:15.338Z,16.10
2018-03-24T15:07:51.324Z,14.33
2018-03-24T15:10:26.222Z,15.17
2018-03-24T15:13:00.938Z,14.90
2018-03-24T15:15:35.068Z,15.00
2018-03-24T15:18:09.059Z,14.80
2018-03-24T15:20:43.766Z,13.37
2018-03-24T15:23:17.633Z,14.97
2018-03-24T15:25:52.061Z,15.37
2018-03-24T15:28:26.128Z,14.17
2018-03-24T15:31:11.986Z,15.83
2018-03-24T15:33:58.412Z,15.30
2018-03-24T15:36:43.808Z,15.07
2018-03-24T15:39:17.919Z,15.57
2018-03-24T15:41:52.171Z,13.80
2018-03-24T15:44:26.052Z,13.33
2018-03-24T15:47:00.969Z,15.87
2018-03-24T15:49:35.770Z,13.50
2018-03-24T15:52:10.213Z,12.77
2018-03-24T15:54:44.433Z,13.17
2018-03-24T15:57:18.378Z,13.80
2018-03-24T15:59:52.040Z,12.60
2018-03-24T16:02:26.634Z,12.53
2018-03-24T16:05:00.466Z,14.50
2018-03-24T16:07:36.127Z,13.93
2018-03-24T16:10:10.205Z,12.93
2018-03-24T16:12:44.136Z,13.60
2018-03-24T16:15:18.836Z,14.23
2018-03-24T16:17:54.258Z,14.47
2018-03-24T16:20:28.904Z,13.27
2018-03-24T16:23:04.493Z,15.93
2018-03-24T16:25:39.209Z,14.87
2018-03-24T16:28:13.591Z,14.70
2018-03-24T16:30:47.462Z,14.87
2018-03-24T16:33:21.407Z,13.17
2018-03-24T16:35:55.216Z,13.33
2018-03-24T16:38:29.965Z,13.77
2018-03-24T16:41:04.044Z,14.97
2018-03-24T16:43:37.718Z,13.87
2018-03-24T16:46:12.486Z,15.20
2018-03-24T16:48:46.274Z,13.70
2018-03-24T16:51:20.882Z,14.83
2018-03-24T16:53:54.592Z,15.60
2018-03-24T16:56:28.426Z,14.90
2018-03-24T16:59:02.860Z,15.97
2018-03-24T17:01:37.343Z,15.03
2018-03-24T17:04:11.294Z,14.60
2018-03-24T17:06:46.201Z,14.03
2018-03-24T17:09:20.315Z,14.10
2018-03-24T17:11:55.160Z,15.10
2018-03-24T17:14:29.882Z,16.50
2018-03-24T17:17:04.111Z,16.20
2018-03-24T17:19:37.991Z,15.63
2018-03-24T17:22:12.713Z,16.00
2018-03-24T17:24:46.503Z,15.93
2018-03-24T17:27:20.352Z,16.27
2018-03-24T17:29:54.322Z,16.40
2018-03-24T17:32:28.935Z,16.30
2018-03-24T17:35:03.629Z,17.73
2018-03-24T17:37:37.460Z,15.63
2018-03-24T17:40:12.006Z,19.50
2018-03-24T17:42:45.816Z,17.40
2018-03-24T17:45:20.644Z,17.80
2018-03-24T17:47:55.205Z,18.57
2018-03-24T17:50:29.756Z,18.40
2018-03-24T17:53:03.284Z,19.03
2018-03-24T17:55:38.042Z,18.17
2018-03-24T17:58:12.724Z,17.80
2018-03-24T18:00:47.276Z,18.67
2018-03-24T18:03:21.716Z,20.33
2018-03-24T18:05:55.439Z,21.40
2018-03-24T18:08:29.322Z,20.37
2018-03-24T18:11:03.347Z,20.03
2018-03-24T18:13:37.111Z,21.27
2018-03-24T18:16:11.898Z,19.40
2018-03-24T18:18:45.550Z,18.90
2018-03-24T18:21:20.639Z,18.97
2018-03-24T18:23:54.960Z,18.70
2018-03-24T18:26:29.467Z,18.53
2018-03-24T18:29:03.357Z,20.70
2018-03-24T18:31:37.251Z,18.93
2018-03-24T18:34:11.235Z,21.93
2018-03-24T18:36:45.029Z,19.33
2018-03-24T18:39:19.094Z,21.13
2018-03-24T18:41:53.433Z,20.43
2018-03-24T18:44:27.859Z,20.50
2018-03-24T18:47:02.385Z,21.80
2018-03-24T18:49:36.911Z,19.47
2018-03-24T18:52:10.556Z,21.47
2018-03-24T18:54:44.330Z,21.37
2018-03-24T18:57:17.868Z,21.27
2018-03-24T18:59:51.582Z,21.90
2018-03-24T19:02:26.198Z,21.47
2018-03-24T19:04:59.702Z,21.80
2018-03-24T19:07:34.071Z,20.60
2018-03-24T19:10:08.004Z,22.17
2018-03-24T19:12:42.340Z,23.77
2018-03-24T19:15:16.196Z,22.13
2018-03-24T19:17:50.387Z,23.10
2018-03-24T19:20:25.152Z,25.20
2018-03-24T19:22:59.916Z,22.87
2018-03-24T19:25:34.797Z,24.87
2018-03-24T19:28:08.434Z,26.67
2018-03-24T19:30:43.068Z,26.57
2018-03-24T19:33:17.191Z,24.17
2018-03-24T19:35:51.180Z,25.43
2018-03-24T19:38:25.127Z,22.27
2018-03-24T19:40:58.860Z,27.50
2018-03-24T19:43:32.646Z,25.40
2018-03-24T19:46:07.160Z,26.97
2018-03-24T19:48:41.859Z,26.53
2018-03-24T19:51:15.964Z,24.63
2018-03-24T19:53:50.076Z,27.10
2018-03-24T19:56:24.233Z,24.87
2018-03-24T19:58:58.962Z,26.80
2018-03-24T20:01:33.596Z,28.03
2018-03-24T20:04:08.211Z,25.87
2018-03-24T20:06:42.510Z,24.57
2018-03-24T20:09:19.058Z,25.83
2018-03-24T20:11:53.554Z,25.40
2018-03-24T20:14:27.011Z,26.07
2018-03-24T20:17:01.914Z,28.83
2018-03-24T20:19:36.203Z,28.27
2018-03-24T20:22:11.109Z,27.53
2018-03-24T20:24:45.201Z,27.83
2018-03-24T20:27:20.036Z,28.47
2018-03-24T20:29:54.488Z,29.00
2018-03-24T20:32:28.556Z,28.40
2018-03-24T20:35:02.704Z,26.30
2018-03-24T20:37:36.767Z,29.57
2018-03-24T20:40:11.300Z,30.73
2018-03-24T20:42:49.796Z,29.30
2018-03-24T20:45:24.540Z,28.97
2018-03-24T20:47:58.459Z,30.47
2018-03-24T20:50:32.520Z,32.43
2018-03-24T20:53:06.537Z,29.67
2018-03-24T20:55:40.510Z,30.80
2018-03-24T20:58:15.575Z,28.80
2018-03-24T21:00:50.539Z,32.80
2018-03-24T21:03:24.669Z,31.80
2018-03-24T21:05:59.565Z,28.50
2018-03-24T21:08:33.882Z,30.80
2018-03-24T21:11:07.804Z,31.47
2018-03-24T21:13:41.871Z,28.73
2018-03-24T21:16:16.480Z,32.87
2018-03-24T21:18:50.449Z,30.90
2018-03-24T21:21:25.168Z,29.20
2018-03-24T21:23:59.084Z,31.97
2018-03-24T21:26:33.969Z,32.13
2018-03-24T21:29:08.133Z,31.40
2018-03-24T21:31:43.253Z,29.80
2018-03-24T21:34:17.419Z,30.27
2018-03-24T21:36:51.470Z,31.73
2018-03-24T21:39:25.976Z,32.10
2018-03-24T21:41:59.966Z,32.00
2018-03-24T21:44:35.581Z,32.50
2018-03-24T21:47:09.595Z,30.77
2018-03-24T21:49:44.108Z,30.80
2018-03-24T21:52:18.805Z,30.67
2018-03-24T21:54:53.291Z,31.13
2018-03-24T21:57:27.574Z,32.50
2018-03-24T22:00:01.557Z,31.37
2018-03-24T22:02:36.398Z,31.10
2018-03-24T22:05:10.294Z,31.80
2018-03-24T22:07:45.437Z,31.83
2018-03-24T22:10:19.354Z,31.63
2018-03-24T22:12:54.181Z,31.37
2018-03-24T22:15:29.216Z,31.00
2018-03-24T22:18:04.116Z,33.20
2018-03-24T22:20:38.980Z,33.27
2018-03-24T22:23:14.160Z,32.90
2018-03-24T22:25:48.872Z,34.57
2018-03-24T22:28:23.505Z,39.80
2018-03-24T22:30:57.457Z,35.47
2018-03-24T22:33:31.879Z,33.23
2018-03-24T22:36:06.417Z,34.40
2018-03-24T22:38:40.798Z,36.00
2018-03-24T22:41:14.933Z,34.70
2018-03-24T22:43:48.683Z,34.67
2018-03-24T22:46:22.879Z,36.83
2018-03-24T22:48:56.761Z,35.60
2018-03-24T22:51:31.495Z,35.43
2018-03-24T22:54:05.263Z,35.93
2018-03-24T22:56:38.971Z,36.80
2018-03-24T22:59:13.715Z,37.77
2018-03-24T23:01:47.636Z,35.67
2018-03-24T23:04:22.340Z,41.03
2018-03-24T23:06:56.348Z,47.80
2018-03-24T23:09:30.713Z,41.40
2018-03-24T23:12:05.069Z,40.17
2018-03-24T23:14:39.094Z,37.70
2018-03-24T23:17:14.236Z,38.27
2018-03-24T23:19:48.508Z,36.73
2018-03-24T23:22:23.239Z,36.30
2018-03-24T23:24:57.855Z,39.50
2018-03-24T23:27:31.810Z,38.17
2018-03-24T23:30:06.215Z,38.87
2018-03-24T23:32:40.958Z,37.50
2018-03-24T23:35:14.978Z,37.67
2018-03-24T23:37:48.679Z,38.10
2018-03-24T23:40:23.448Z,34.87
2018-03-24T23:42:57.573Z,35.97
2018-03-24T23:45:32.132Z,35.27
2018-03-24T23:48:06.123Z,40.37
2018-03-24T23:50:40.662Z,35.50
2018-03-24T23:53:15.164Z,37.60
2018-03-24T23:55:49.962Z,35.37
2018-03-24T23:58:24.880Z,38.77
